sensor_id;sensor_type;location;lat;lon;timestamp;temperature;humidity
7307;DHT22;3694;48.732;9.248;2022-11-23T00:01:20;1.90;99.90
7307;DHT22;3694;48.732;9.248;2022-11-23T00:03:48;2.00;99.90
7307;DHT22;3694;48.732;9.248;2022-11-23T00:06:15;2.20;99.90
7307;DHT22;3694;48.732;9.248;2022-11-23T00:08:41;2.20;99.90
7307;DHT22;3694;48.732;9.248;2022-11-23T00:11:07;2.20;99.90
7307;DHT22;3694;48.732;9.248;2022-11-23T00:13:33;2.20;99.90
7307;DHT22;3694;48.732;9.248;2022-11-23T00:16:00;2.20;99.90
7307;DHT22;3694;48.732;9.248;2022-11-23T00:18:28;2.20;99.90
7307;DHT22;3694;48.732;9.248;2022-11-23T00:20:54;2.30;99.90
7307;DHT22;3694;48.732;9.248;2022-11-23T00:23:19;2.30;99.90
7307;DHT22;3694;48.732;9.248;2022-11-23T00:25:45;2.40;99.90
7307;DHT22;3694;48.732;9.248;2022-11-23T00:28:11;2.40;99.90
7307;DHT22;3694;48.732;9.248;2022-11-23T00:30:37;2.40;99.90
7307;DHT22;3694;48.732;9.248;2022-11-23T00:33:02;2.40;99.90
7307;DHT22;3694;48.732;9.248;2022-11-23T00:35:28;2.40;99.90
7307;DHT22;3694;48.732;9.248;2022-11-23T00:37:53;2.50;99.90
7307;DHT22;3694;48.732;9.248;2022-11-23T00:40:19;2.50;99.90
7307;DHT22;3694;48.732;9.248;2022-11-23T00:42:44;2.50;99.90
7307;DHT22;3694;48.732;9.248;2022-11-23T00:45:10;2.40;99.90
7307;DHT22;3694;48.732;9.248;2022-11-23T00:47:35;2.40;99.90
7307;DHT22;3694;48.732;9.248;2022-11-23T00:50:01;2.50;99.90
7307;DHT22;3694;48.732;9.248;2022-11-23T00:52:27;2.60;99.90
7307;DHT22;3694;48.732;9.248;2022-11-23T00:54:52;2.60;99.90
7307;DHT22;3694;48.732;9.248;2022-11-23T00:57:18;2.60;99.90
7307;DHT22;3694;48.732;9.248;2022-11-23T00:59:43;2.70;99.90
7307;DHT22;3694;48.732;9.248;2022-11-23T01:02:09;2.80;99.90
7307;DHT22;3694;48.732;9.248;2022-11-23T01:04:34;2.80;99.90
7307;DHT22;3694;48.732;9.248;2022-11-23T01:07:00;2.80;99.90
7307;DHT22;3694;48.732;9.248;2022-11-23T01:09:26;2.70;99.90
7307;DHT22;3694;48.732;9.248;2022-11-23T01:11:55;2.60;99.90
7307;DHT22;3694;48.732;9.248;2022-11-23T01:14:21;2.70;99.90
7307;DHT22;3694;48.732;9.248;2022-11-23T01:16:47;2.70;99.90
7307;DHT22;3694;48.732;9.248;2022-11-23T01:19:15;2.70;99.90
7307;DHT22;3694;48.732;9.248;2022-11-23T01:21:41;2.80;99.90
7307;DHT22;3694;48.732;9.248;2022-11-23T01:24:10;2.70;99.90
7307;DHT22;3694;48.732;9.248;2022-11-23T01:26:36;2.70;99.90
7307;DHT22;3694;48.732;9.248;2022-11-23T01:29:02;2.70;99.90
7307;DHT22;3694;48.732;9.248;2022-11-23T01:31:28;2.70;99.90
7307;DHT22;3694;48.732;9.248;2022-11-23T01:33:58;2.80;99.90
7307;DHT22;3694;48.732;9.248;2022-11-23T01:36:26;2.90;99.90
7307;DHT22;3694;48.732;9.248;2022-11-23T01:38:52;2.90;99.90
7307;DHT22;3694;48.732;9.248;2022-11-23T01:41:25;2.90;99.90
7307;DHT22;3694;48.732;9.248;2022-11-23T01:43:51;2.80;99.90
7307;DHT22;3694;48.732;9.248;2022-11-23T01:46:17;2.90;99.90
7307;DHT22;3694;48.732;9.248;2022-11-23T01:51:26;2.90;99.90
7307;DHT22;3694;48.732;9.248;2022-11-23T01:53:57;3.00;99.90
7307;DHT22;3694;48.732;9.248;2022-11-23T01:56:27;3.00;99.90
7307;DHT22;3694;48.732;9.248;2022-11-23T01:58:56;2.90;99.90
7307;DHT22;3694;48.732;9.248;2022-11-23T02:01:22;2.90;99.90
7307;DHT22;3694;48.732;9.248;2022-11-23T02:03:48;2.90;99.90
7307;DHT22;3694;48.732;9.248;2022-11-23T02:06:16;2.80;99.90
7307;DHT22;3694;48.732;9.248;2022-11-23T02:08:42;2.80;99.90
7307;DHT22;3694;48.732;9.248;2022-11-23T02:11:09;2.80;99.90
7307;DHT22;3694;48.732;9.248;2022-11-23T02:13:35;2.70;99.90
7307;DHT22;3694;48.732;9.248;2022-11-23T02:16:01;2.60;99.90
7307;DHT22;3694;48.732;9.248;2022-11-23T02:18:29;2.40;99.90
7307;DHT22;3694;48.732;9.248;2022-11-23T02:20:57;2.40;99.90
7307;DHT22;3694;48.732;9.248;2022-11-23T02:23:48;2.30;99.90
7307;DHT22;3694;48.732;9.248;2022-11-23T02:26:26;2.30;99.90
7307;DHT22;3694;48.732;9.248;2022-11-23T02:29:07;2.20;99.90
7307;DHT22;3694;48.732;9.248;2022-11-23T02:31:34;2.10;99.90
7307;DHT22;3694;48.732;9.248;2022-11-23T02:34:00;2.10;99.90
7307;DHT22;3694;48.732;9.248;2022-11-23T02:41:45;1.90;99.90
7307;DHT22;3694;48.732;9.248;2022-11-23T02:47:01;1.90;99.90
7307;DHT22;3694;48.732;9.248;2022-11-23T02:49:27;1.80;99.90
7307;DHT22;3694;48.732;9.248;2022-11-23T02:54:20;1.90;99.90
7307;DHT22;3694;48.732;9.248;2022-11-23T02:56:46;1.90;99.90
7307;DHT22;3694;48.732;9.248;2022-11-23T02:59:11;1.90;99.90
7307;DHT22;3694;48.732;9.248;2022-11-23T03:01:38;1.90;99.90
7307;DHT22;3694;48.732;9.248;2022-11-23T03:04:07;1.80;99.90
7307;DHT22;3694;48.732;9.248;2022-11-23T03:06:33;1.80;99.90
7307;DHT22;3694;48.732;9.248;2022-11-23T03:08:58;1.80;99.90
7307;DHT22;3694;48.732;9.248;2022-11-23T03:11:24;1.60;99.90
7307;DHT22;3694;48.732;9.248;2022-11-23T03:13:49;1.60;99.90
7307;DHT22;3694;48.732;9.248;2022-11-23T03:16:15;1.50;99.90
7307;DHT22;3694;48.732;9.248;2022-11-23T03:18:41;1.50;99.90
7307;DHT22;3694;48.732;9.248;2022-11-23T03:21:07;1.40;99.90
7307;DHT22;3694;48.732;9.248;2022-11-23T03:23:36;1.30;99.90
7307;DHT22;3694;48.732;9.248;2022-11-23T03:26:02;1.30;99.90
7307;DHT22;3694;48.732;9.248;2022-11-23T03:28:28;1.40;99.90
7307;DHT22;3694;48.732;9.248;2022-11-23T03:30:54;1.40;99.90
7307;DHT22;3694;48.732;9.248;2022-11-23T03:33:20;1.50;99.90
7307;DHT22;3694;48.732;9.248;2022-11-23T03:35:46;1.60;99.90
7307;DHT22;3694;48.732;9.248;2022-11-23T03:38:12;1.70;99.90
7307;DHT22;3694;48.732;9.248;2022-11-23T03:40:37;1.80;99.90
7307;DHT22;3694;48.732;9.248;2022-11-23T03:43:03;1.80;99.90
7307;DHT22;3694;48.732;9.248;2022-11-23T03:45:29;1.80;99.90
7307;DHT22;3694;48.732;9.248;2022-11-23T03:47:54;1.90;99.90
7307;DHT22;3694;48.732;9.248;2022-11-23T03:50:20;1.80;99.90
7307;DHT22;3694;48.732;9.248;2022-11-23T03:52:47;1.90;99.90
7307;DHT22;3694;48.732;9.248;2022-11-23T03:55:13;1.90;99.90
7307;DHT22;3694;48.732;9.248;2022-11-23T03:57:38;2.00;99.90
7307;DHT22;3694;48.732;9.248;2022-11-23T04:00:04;2.10;99.90
7307;DHT22;3694;48.732;9.248;2022-11-23T04:02:30;2.00;99.90
7307;DHT22;3694;48.732;9.248;2022-11-23T04:04:56;2.10;99.90
7307;DHT22;3694;48.732;9.248;2022-11-23T04:07:21;2.10;99.90
7307;DHT22;3694;48.732;9.248;2022-11-23T04:09:47;2.10;99.90
7307;DHT22;3694;48.732;9.248;2022-11-23T04:12:12;2.10;99.90
7307;DHT22;3694;48.732;9.248;2022-11-23T04:14:38;2.20;99.90
7307;DHT22;3694;48.732;9.248;2022-11-23T04:17:03;2.30;99.90
7307;DHT22;3694;48.732;9.248;2022-11-23T04:19:29;2.40;99.90
7307;DHT22;3694;48.732;9.248;2022-11-23T04:21:55;2.50;99.90
7307;DHT22;3694;48.732;9.248;2022-11-23T04:24:20;2.60;99.90
7307;DHT22;3694;48.732;9.248;2022-11-23T04:26:46;2.70;99.90
7307;DHT22;3694;48.732;9.248;2022-11-23T04:29:11;2.80;99.90
7307;DHT22;3694;48.732;9.248;2022-11-23T04:31:37;2.80;99.90
7307;DHT22;3694;48.732;9.248;2022-11-23T04:34:03;2.80;99.90
7307;DHT22;3694;48.732;9.248;2022-11-23T04:36:29;2.80;99.90
7307;DHT22;3694;48.732;9.248;2022-11-23T04:38:54;2.70;99.90
7307;DHT22;3694;48.732;9.248;2022-11-23T04:41:21;2.60;99.90
7307;DHT22;3694;48.732;9.248;2022-11-23T04:43:47;2.60;99.90
7307;DHT22;3694;48.732;9.248;2022-11-23T04:46:13;2.50;99.90
7307;DHT22;3694;48.732;9.248;2022-11-23T04:48:39;2.40;99.90
7307;DHT22;3694;48.732;9.248;2022-11-23T04:51:04;2.20;99.90
7307;DHT22;3694;48.732;9.248;2022-11-23T04:53:30;2.00;99.90
7307;DHT22;3694;48.732;9.248;2022-11-23T04:55:56;1.80;99.90
7307;DHT22;3694;48.732;9.248;2022-11-23T04:58:21;1.80;99.90
7307;DHT22;3694;48.732;9.248;2022-11-23T05:00:47;1.80;99.90
7307;DHT22;3694;48.732;9.248;2022-11-23T05:03:13;1.60;99.90
7307;DHT22;3694;48.732;9.248;2022-11-23T05:05:39;1.50;99.90
7307;DHT22;3694;48.732;9.248;2022-11-23T05:08:05;1.50;99.90
7307;DHT22;3694;48.732;9.248;2022-11-23T05:10:31;1.50;99.90
7307;DHT22;3694;48.732;9.248;2022-11-23T05:12:56;1.50;99.90
7307;DHT22;3694;48.732;9.248;2022-11-23T05:15:22;1.60;99.90
7307;DHT22;3694;48.732;9.248;2022-11-23T05:17:48;1.60;99.90
7307;DHT22;3694;48.732;9.248;2022-11-23T05:20:14;1.60;99.90
7307;DHT22;3694;48.732;9.248;2022-11-23T05:22:39;1.60;99.90
7307;DHT22;3694;48.732;9.248;2022-11-23T05:25:05;1.70;99.90
7307;DHT22;3694;48.732;9.248;2022-11-23T05:27:31;1.70;99.90
7307;DHT22;3694;48.732;9.248;2022-11-23T05:29:57;1.70;99.90
7307;DHT22;3694;48.732;9.248;2022-11-23T05:32:23;1.70;99.90
7307;DHT22;3694;48.732;9.248;2022-11-23T05:34:48;1.70;99.90
7307;DHT22;3694;48.732;9.248;2022-11-23T05:37:14;1.50;99.90
7307;DHT22;3694;48.732;9.248;2022-11-23T05:39:40;1.50;99.90
7307;DHT22;3694;48.732;9.248;2022-11-23T05:42:05;1.40;99.90
7307;DHT22;3694;48.732;9.248;2022-11-23T05:44:31;1.40;99.90
7307;DHT22;3694;48.732;9.248;2022-11-23T05:46:57;1.40;99.90
7307;DHT22;3694;48.732;9.248;2022-11-23T05:49:22;1.40;99.90
7307;DHT22;3694;48.732;9.248;2022-11-23T05:51:48;1.50;99.90
7307;DHT22;3694;48.732;9.248;2022-11-23T05:54:13;1.50;99.90
7307;DHT22;3694;48.732;9.248;2022-11-23T05:56:39;1.50;99.90
7307;DHT22;3694;48.732;9.248;2022-11-23T05:59:04;1.60;99.90
7307;DHT22;3694;48.732;9.248;2022-11-23T06:01:31;1.60;99.90
7307;DHT22;3694;48.732;9.248;2022-11-23T06:03:57;1.70;99.90
7307;DHT22;3694;48.732;9.248;2022-11-23T06:06:23;1.70;99.90
7307;DHT22;3694;48.732;9.248;2022-11-23T06:08:48;1.80;99.90
7307;DHT22;3694;48.732;9.248;2022-11-23T06:11:14;1.80;99.90
7307;DHT22;3694;48.732;9.248;2022-11-23T06:13:39;1.90;99.90
7307;DHT22;3694;48.732;9.248;2022-11-23T06:16:05;1.90;99.90
7307;DHT22;3694;48.732;9.248;2022-11-23T06:18:31;2.00;99.90
7307;DHT22;3694;48.732;9.248;2022-11-23T06:21:01;2.10;99.90
7307;DHT22;3694;48.732;9.248;2022-11-23T06:23:27;2.10;99.90
7307;DHT22;3694;48.732;9.248;2022-11-23T06:25:52;2.20;99.90
7307;DHT22;3694;48.732;9.248;2022-11-23T06:28:18;2.10;99.90
7307;DHT22;3694;48.732;9.248;2022-11-23T06:30:44;2.20;99.90
7307;DHT22;3694;48.732;9.248;2022-11-23T06:33:09;2.20;99.90
7307;DHT22;3694;48.732;9.248;2022-11-23T06:35:35;2.30;99.90
7307;DHT22;3694;48.732;9.248;2022-11-23T06:38:00;2.20;99.90
7307;DHT22;3694;48.732;9.248;2022-11-23T06:40:26;2.10;99.90
7307;DHT22;3694;48.732;9.248;2022-11-23T06:43:00;2.00;99.90
7307;DHT22;3694;48.732;9.248;2022-11-23T06:45:26;2.00;99.90
7307;DHT22;3694;48.732;9.248;2022-11-23T06:47:55;1.90;99.90
7307;DHT22;3694;48.732;9.248;2022-11-23T06:50:23;2.00;99.90
7307;DHT22;3694;48.732;9.248;2022-11-23T06:52:56;2.00;99.90
7307;DHT22;3694;48.732;9.248;2022-11-23T06:55:23;2.10;99.90
7307;DHT22;3694;48.732;9.248;2022-11-23T06:57:49;2.10;99.90
7307;DHT22;3694;48.732;9.248;2022-11-23T07:00:15;2.10;99.90
7307;DHT22;3694;48.732;9.248;2022-11-23T07:02:41;2.00;99.90
7307;DHT22;3694;48.732;9.248;2022-11-23T07:05:06;2.00;99.90
7307;DHT22;3694;48.732;9.248;2022-11-23T07:07:32;1.90;99.90
7307;DHT22;3694;48.732;9.248;2022-11-23T07:09:58;1.90;99.90
7307;DHT22;3694;48.732;9.248;2022-11-23T07:12:23;1.70;99.90
7307;DHT22;3694;48.732;9.248;2022-11-23T07:14:49;1.70;99.90
7307;DHT22;3694;48.732;9.248;2022-11-23T07:17:14;1.70;99.90
7307;DHT22;3694;48.732;9.248;2022-11-23T07:19:40;1.60;99.90
7307;DHT22;3694;48.732;9.248;2022-11-23T07:22:05;1.50;99.90
7307;DHT22;3694;48.732;9.248;2022-11-23T07:24:31;1.50;99.90
7307;DHT22;3694;48.732;9.248;2022-11-23T07:26:57;1.50;99.90
7307;DHT22;3694;48.732;9.248;2022-11-23T07:29:22;1.60;99.90
7307;DHT22;3694;48.732;9.248;2022-11-23T07:31:48;1.50;99.90
7307;DHT22;3694;48.732;9.248;2022-11-23T07:34:13;1.40;99.90
7307;DHT22;3694;48.732;9.248;2022-11-23T07:36:39;1.50;99.90
7307;DHT22;3694;48.732;9.248;2022-11-23T07:39:04;1.50;99.90
7307;DHT22;3694;48.732;9.248;2022-11-23T07:41:30;1.50;99.90
7307;DHT22;3694;48.732;9.248;2022-11-23T07:43:56;1.50;99.90
7307;DHT22;3694;48.732;9.248;2022-11-23T07:46:21;1.50;99.90
7307;DHT22;3694;48.732;9.248;2022-11-23T07:48:47;1.50;99.90
7307;DHT22;3694;48.732;9.248;2022-11-23T07:51:13;1.60;99.90
7307;DHT22;3694;48.732;9.248;2022-11-23T07:53:39;1.80;99.90
7307;DHT22;3694;48.732;9.248;2022-11-23T07:56:04;1.80;99.90
7307;DHT22;3694;48.732;9.248;2022-11-23T07:58:30;1.90;99.90
7307;DHT22;3694;48.732;9.248;2022-11-23T08:00:57;1.90;99.90
7307;DHT22;3694;48.732;9.248;2022-11-23T08:03:22;2.00;99.90
7307;DHT22;3694;48.732;9.248;2022-11-23T08:05:48;2.10;99.90
7307;DHT22;3694;48.732;9.248;2022-11-23T08:08:13;2.10;99.90
7307;DHT22;3694;48.732;9.248;2022-11-23T08:10:39;2.30;99.90
7307;DHT22;3694;48.732;9.248;2022-11-23T08:13:05;2.30;99.90
7307;DHT22;3694;48.732;9.248;2022-11-23T08:15:31;2.40;99.90
7307;DHT22;3694;48.732;9.248;2022-11-23T08:17:58;2.40;99.90
7307;DHT22;3694;48.732;9.248;2022-11-23T08:20:24;2.50;99.90
7307;DHT22;3694;48.732;9.248;2022-11-23T08:22:50;2.60;99.90
7307;DHT22;3694;48.732;9.248;2022-11-23T08:25:15;2.70;99.90
7307;DHT22;3694;48.732;9.248;2022-11-23T08:27:41;2.70;99.90
7307;DHT22;3694;48.732;9.248;2022-11-23T08:30:07;2.80;99.90
7307;DHT22;3694;48.732;9.248;2022-11-23T08:32:33;2.90;99.90
7307;DHT22;3694;48.732;9.248;2022-11-23T08:34:58;3.00;99.90
7307;DHT22;3694;48.732;9.248;2022-11-23T08:37:24;3.10;99.90
7307;DHT22;3694;48.732;9.248;2022-11-23T08:39:49;3.10;99.90
7307;DHT22;3694;48.732;9.248;2022-11-23T08:42:15;3.20;99.90
7307;DHT22;3694;48.732;9.248;2022-11-23T08:44:41;3.20;99.90
7307;DHT22;3694;48.732;9.248;2022-11-23T08:47:06;3.50;99.90
7307;DHT22;3694;48.732;9.248;2022-11-23T08:49:32;3.40;99.90
7307;DHT22;3694;48.732;9.248;2022-11-23T08:51:57;3.40;99.90
7307;DHT22;3694;48.732;9.248;2022-11-23T08:54:24;3.50;99.90
7307;DHT22;3694;48.732;9.248;2022-11-23T08:56:50;3.60;99.90
7307;DHT22;3694;48.732;9.248;2022-11-23T08:59:16;3.70;99.90
7307;DHT22;3694;48.732;9.248;2022-11-23T09:01:42;3.80;99.90
7307;DHT22;3694;48.732;9.248;2022-11-23T09:04:08;3.80;99.90
7307;DHT22;3694;48.732;9.248;2022-11-23T09:06:34;3.90;99.90
7307;DHT22;3694;48.732;9.248;2022-11-23T09:09:00;4.00;99.90
7307;DHT22;3694;48.732;9.248;2022-11-23T09:11:25;4.10;99.90
7307;DHT22;3694;48.732;9.248;2022-11-23T09:13:51;4.20;99.90
7307;DHT22;3694;48.732;9.248;2022-11-23T09:16:17;4.30;99.90
7307;DHT22;3694;48.732;9.248;2022-11-23T09:18:42;4.40;99.90
7307;DHT22;3694;48.732;9.248;2022-11-23T09:21:09;4.50;99.90
7307;DHT22;3694;48.732;9.248;2022-11-23T09:23:35;4.50;99.90
7307;DHT22;3694;48.732;9.248;2022-11-23T09:26:02;4.60;99.90
7307;DHT22;3694;48.732;9.248;2022-11-23T09:28:28;4.60;99.90
7307;DHT22;3694;48.732;9.248;2022-11-23T09:30:55;4.70;99.90
7307;DHT22;3694;48.732;9.248;2022-11-23T09:33:22;4.80;99.90
7307;DHT22;3694;48.732;9.248;2022-11-23T09:36:08;4.90;99.90
7307;DHT22;3694;48.732;9.248;2022-11-23T09:38:34;5.00;99.90
7307;DHT22;3694;48.732;9.248;2022-11-23T09:41:28;5.10;99.90
7307;DHT22;3694;48.732;9.248;2022-11-23T09:44:04;5.20;99.90
7307;DHT22;3694;48.732;9.248;2022-11-23T09:46:56;5.30;99.90
7307;DHT22;3694;48.732;9.248;2022-11-23T09:49:43;5.30;99.90
7307;DHT22;3694;48.732;9.248;2022-11-23T09:52:15;5.40;99.90
7307;DHT22;3694;48.732;9.248;2022-11-23T09:54:44;5.50;99.90
7307;DHT22;3694;48.732;9.248;2022-11-23T09:57:15;5.60;99.90
7307;DHT22;3694;48.732;9.248;2022-11-23T10:00:04;5.70;99.90
7307;DHT22;3694;48.732;9.248;2022-11-23T10:02:35;5.70;99.90
7307;DHT22;3694;48.732;9.248;2022-11-23T10:05:04;5.90;99.90
7307;DHT22;3694;48.732;9.248;2022-11-23T10:10:37;5.90;99.90
7307;DHT22;3694;48.732;9.248;2022-11-23T10:13:15;6.00;99.90
7307;DHT22;3694;48.732;9.248;2022-11-23T10:18:51;6.00;99.90
7307;DHT22;3694;48.732;9.248;2022-11-23T10:24:19;6.30;99.80
7307;DHT22;3694;48.732;9.248;2022-11-23T10:26:48;6.30;99.90
7307;DHT22;3694;48.732;9.248;2022-11-23T10:29:34;6.30;99.70
7307;DHT22;3694;48.732;9.248;2022-11-23T10:31:59;6.40;99.60
7307;DHT22;3694;48.732;9.248;2022-11-23T10:34:43;6.40;99.30
7307;DHT22;3694;48.732;9.248;2022-11-23T10:37:12;6.40;99.40
7307;DHT22;3694;48.732;9.248;2022-11-23T10:39:38;6.30;99.50
7307;DHT22;3694;48.732;9.248;2022-11-23T10:42:17;6.30;99.40
7307;DHT22;3694;48.732;9.248;2022-11-23T10:44:45;6.40;99.30
7307;DHT22;3694;48.732;9.248;2022-11-23T10:49:59;6.40;99.00
7307;DHT22;3694;48.732;9.248;2022-11-23T10:52:28;6.50;98.90
7307;DHT22;3694;48.732;9.248;2022-11-23T10:54:56;6.50;98.80
7307;DHT22;3694;48.732;9.248;2022-11-23T10:57:33;6.50;98.90
7307;DHT22;3694;48.732;9.248;2022-11-23T11:02:43;6.50;98.50
7307;DHT22;3694;48.732;9.248;2022-11-23T11:05:23;6.60;98.70
7307;DHT22;3694;48.732;9.248;2022-11-23T11:07:49;6.60;98.90
7307;DHT22;3694;48.732;9.248;2022-11-23T11:10:41;6.60;98.80
7307;DHT22;3694;48.732;9.248;2022-11-23T11:13:22;6.60;98.70
7307;DHT22;3694;48.732;9.248;2022-11-23T11:15:58;6.70;98.70
7307;DHT22;3694;48.732;9.248;2022-11-23T11:18:27;6.70;98.40
7307;DHT22;3694;48.732;9.248;2022-11-23T11:21:16;6.80;98.20
7307;DHT22;3694;48.732;9.248;2022-11-23T11:24:04;6.80;98.00
7307;DHT22;3694;48.732;9.248;2022-11-23T11:26:32;6.80;98.00
7307;DHT22;3694;48.732;9.248;2022-11-23T11:29:04;6.90;98.00
7307;DHT22;3694;48.732;9.248;2022-11-23T11:39:45;7.00;97.40
7307;DHT22;3694;48.732;9.248;2022-11-23T11:42:32;7.10;97.40
7307;DHT22;3694;48.732;9.248;2022-11-23T11:45:00;7.20;97.50
7307;DHT22;3694;48.732;9.248;2022-11-23T11:47:30;7.20;97.40
7307;DHT22;3694;48.732;9.248;2022-11-23T11:50:04;7.20;97.20
7307;DHT22;3694;48.732;9.248;2022-11-23T11:52:36;7.30;97.30
7307;DHT22;3694;48.732;9.248;2022-11-23T11:55:11;7.30;97.10
7307;DHT22;3694;48.732;9.248;2022-11-23T11:57:49;7.30;96.50
7307;DHT22;3694;48.732;9.248;2022-11-23T12:00:18;7.40;96.80
7307;DHT22;3694;48.732;9.248;2022-11-23T12:05:46;7.50;96.40
7307;DHT22;3694;48.732;9.248;2022-11-23T12:10:59;7.50;96.30
7307;DHT22;3694;48.732;9.248;2022-11-23T12:13:35;7.60;96.50
7307;DHT22;3694;48.732;9.248;2022-11-23T12:19:07;7.60;96.50
7307;DHT22;3694;48.732;9.248;2022-11-23T12:22:04;7.60;96.30
7307;DHT22;3694;48.732;9.248;2022-11-23T12:31:03;7.70;95.90
7307;DHT22;3694;48.732;9.248;2022-11-23T12:33:53;7.70;96.00
7307;DHT22;3694;48.732;9.248;2022-11-23T12:39:53;7.70;96.10
7307;DHT22;3694;48.732;9.248;2022-11-23T12:42:40;7.70;95.80
7307;DHT22;3694;48.732;9.248;2022-11-23T12:50:39;7.80;95.80
7307;DHT22;3694;48.732;9.248;2022-11-23T12:56:28;7.80;95.50
7307;DHT22;3694;48.732;9.248;2022-11-23T12:58:57;7.80;95.40
7307;DHT22;3694;48.732;9.248;2022-11-23T13:01:44;7.60;95.50
7307;DHT22;3694;48.732;9.248;2022-11-23T13:04:27;7.80;95.50
7307;DHT22;3694;48.732;9.248;2022-11-23T13:09:54;7.90;95.80
7307;DHT22;3694;48.732;9.248;2022-11-23T13:12:48;7.90;95.70
7307;DHT22;3694;48.732;9.248;2022-11-23T13:23:43;7.80;95.90
7307;DHT22;3694;48.732;9.248;2022-11-23T13:26:20;7.80;96.10
7307;DHT22;3694;48.732;9.248;2022-11-23T13:28:50;7.70;96.00
7307;DHT22;3694;48.732;9.248;2022-11-23T13:31:23;7.70;95.90
7307;DHT22;3694;48.732;9.248;2022-11-23T13:33:52;7.60;95.80
7307;DHT22;3694;48.732;9.248;2022-11-23T13:36:34;7.60;95.90
7307;DHT22;3694;48.732;9.248;2022-11-23T13:39:02;7.60;96.10
7307;DHT22;3694;48.732;9.248;2022-11-23T13:44:22;7.50;96.20
7307;DHT22;3694;48.732;9.248;2022-11-23T13:47:18;7.50;96.50
7307;DHT22;3694;48.732;9.248;2022-11-23T13:49:49;7.40;96.30
7307;DHT22;3694;48.732;9.248;2022-11-23T13:52:25;7.40;96.50
7307;DHT22;3694;48.732;9.248;2022-11-23T13:57:40;7.50;95.90
7307;DHT22;3694;48.732;9.248;2022-11-23T14:14:43;7.50;95.40
7307;DHT22;3694;48.732;9.248;2022-11-23T14:17:34;7.50;95.50
7307;DHT22;3694;48.732;9.248;2022-11-23T14:29:04;7.30;96.10
7307;DHT22;3694;48.732;9.248;2022-11-23T14:43:15;7.10;96.10
7307;DHT22;3694;48.732;9.248;2022-11-23T14:45:44;7.10;96.30
7307;DHT22;3694;48.732;9.248;2022-11-23T14:48:27;7.10;96.00
7307;DHT22;3694;48.732;9.248;2022-11-23T14:51:04;7.00;96.20
7307;DHT22;3694;48.732;9.248;2022-11-23T14:53:38;6.90;96.20
7307;DHT22;3694;48.732;9.248;2022-11-23T14:56:04;6.80;96.50
7307;DHT22;3694;48.732;9.248;2022-11-23T14:58:31;6.80;96.30
7307;DHT22;3694;48.732;9.248;2022-11-23T15:00:59;6.70;96.40
7307;DHT22;3694;48.732;9.248;2022-11-23T15:03:27;6.60;96.40
7307;DHT22;3694;48.732;9.248;2022-11-23T15:06:14;6.40;96.50
7307;DHT22;3694;48.732;9.248;2022-11-23T15:09:07;6.30;96.60
7307;DHT22;3694;48.732;9.248;2022-11-23T15:11:38;6.20;96.60
7307;DHT22;3694;48.732;9.248;2022-11-23T15:14:16;6.10;96.70
7307;DHT22;3694;48.732;9.248;2022-11-23T15:16:43;5.90;96.80
7307;DHT22;3694;48.732;9.248;2022-11-23T15:19:24;5.80;96.90
7307;DHT22;3694;48.732;9.248;2022-11-23T15:21:50;5.60;97.10
7307;DHT22;3694;48.732;9.248;2022-11-23T15:24:21;5.50;97.30
7307;DHT22;3694;48.732;9.248;2022-11-23T15:26:47;5.40;97.40
7307;DHT22;3694;48.732;9.248;2022-11-23T15:29:33;5.50;97.30
7307;DHT22;3694;48.732;9.248;2022-11-23T15:31:59;5.30;97.30
7307;DHT22;3694;48.732;9.248;2022-11-23T15:34:24;5.30;97.30
7307;DHT22;3694;48.732;9.248;2022-11-23T15:36:51;5.20;97.40
7307;DHT22;3694;48.732;9.248;2022-11-23T15:39:18;5.20;97.40
7307;DHT22;3694;48.732;9.248;2022-11-23T15:41:45;5.20;97.40
7307;DHT22;3694;48.732;9.248;2022-11-23T15:44:30;5.10;97.40
7307;DHT22;3694;48.732;9.248;2022-11-23T15:46:59;5.20;97.40
7307;DHT22;3694;48.732;9.248;2022-11-23T15:49:25;5.30;97.40
7307;DHT22;3694;48.732;9.248;2022-11-23T15:51:58;5.30;97.40
7307;DHT22;3694;48.732;9.248;2022-11-23T15:54:26;5.20;97.40
7307;DHT22;3694;48.732;9.248;2022-11-23T15:56:54;5.30;97.40
7307;DHT22;3694;48.732;9.248;2022-11-23T15:59:30;5.20;97.40
7307;DHT22;3694;48.732;9.248;2022-11-23T16:01:58;5.30;97.50
7307;DHT22;3694;48.732;9.248;2022-11-23T16:06:51;5.20;97.60
7307;DHT22;3694;48.732;9.248;2022-11-23T16:10:02;5.30;97.70
7307;DHT22;3694;48.732;9.248;2022-11-23T16:12:52;5.40;97.70
7307;DHT22;3694;48.732;9.248;2022-11-23T16:18:03;5.60;97.50
7307;DHT22;3694;48.732;9.248;2022-11-23T16:20:29;5.70;97.50
7307;DHT22;3694;48.732;9.248;2022-11-23T16:22:57;5.80;97.50
7307;DHT22;3694;48.732;9.248;2022-11-23T16:28:05;6.00;97.50
7307;DHT22;3694;48.732;9.248;2022-11-23T16:30:41;6.10;97.50
7307;DHT22;3694;48.732;9.248;2022-11-23T16:33:15;6.00;97.50
7307;DHT22;3694;48.732;9.248;2022-11-23T16:35:41;6.30;97.50
7307;DHT22;3694;48.732;9.248;2022-11-23T16:38:06;6.10;97.50
7307;DHT22;3694;48.732;9.248;2022-11-23T16:40:32;6.30;97.40
7307;DHT22;3694;48.732;9.248;2022-11-23T16:42:58;6.30;97.20
7307;DHT22;3694;48.732;9.248;2022-11-23T16:45:24;6.30;97.10
7307;DHT22;3694;48.732;9.248;2022-11-23T16:48:01;6.40;96.90
7307;DHT22;3694;48.732;9.248;2022-11-23T16:50:29;6.50;96.80
7307;DHT22;3694;48.732;9.248;2022-11-23T16:52:56;6.50;96.90
7307;DHT22;3694;48.732;9.248;2022-11-23T16:55:22;6.50;97.00
7307;DHT22;3694;48.732;9.248;2022-11-23T16:57:47;6.40;97.00
7307;DHT22;3694;48.732;9.248;2022-11-23T17:00:16;6.50;97.30
7307;DHT22;3694;48.732;9.248;2022-11-23T17:02:42;6.50;97.50
7307;DHT22;3694;48.732;9.248;2022-11-23T17:05:14;6.50;97.40
7307;DHT22;3694;48.732;9.248;2022-11-23T17:07:40;6.60;97.40
7307;DHT22;3694;48.732;9.248;2022-11-23T17:10:06;6.50;97.60
7307;DHT22;3694;48.732;9.248;2022-11-23T17:12:31;6.50;97.60
7307;DHT22;3694;48.732;9.248;2022-11-23T17:14:58;6.40;98.00
7307;DHT22;3694;48.732;9.248;2022-11-23T17:17:23;6.40;98.20
7307;DHT22;3694;48.732;9.248;2022-11-23T17:19:49;6.40;98.50
7307;DHT22;3694;48.732;9.248;2022-11-23T17:22:16;6.30;99.20
7307;DHT22;3694;48.732;9.248;2022-11-23T17:24:42;6.20;99.80
7307;DHT22;3694;48.732;9.248;2022-11-23T17:27:12;6.10;99.40
7307;DHT22;3694;48.732;9.248;2022-11-23T17:29:38;6.10;99.70
7307;DHT22;3694;48.732;9.248;2022-11-23T17:32:04;6.10;99.50
7307;DHT22;3694;48.732;9.248;2022-11-23T17:34:30;6.20;99.70
7307;DHT22;3694;48.732;9.248;2022-11-23T17:36:56;6.20;99.70
7307;DHT22;3694;48.732;9.248;2022-11-23T17:39:23;6.10;99.70
7307;DHT22;3694;48.732;9.248;2022-11-23T17:41:49;6.20;99.80
7307;DHT22;3694;48.732;9.248;2022-11-23T17:44:16;6.20;99.60
7307;DHT22;3694;48.732;9.248;2022-11-23T17:46:42;6.10;99.90
7307;DHT22;3694;48.732;9.248;2022-11-23T17:49:11;6.10;99.90
7307;DHT22;3694;48.732;9.248;2022-11-23T17:51:37;6.10;99.90
7307;DHT22;3694;48.732;9.248;2022-11-23T17:54:03;6.10;99.90
7307;DHT22;3694;48.732;9.248;2022-11-23T17:56:28;6.20;99.90
7307;DHT22;3694;48.732;9.248;2022-11-23T17:58:54;6.00;99.90
7307;DHT22;3694;48.732;9.248;2022-11-23T18:01:20;6.00;99.90
7307;DHT22;3694;48.732;9.248;2022-11-23T18:03:46;5.90;99.90
7307;DHT22;3694;48.732;9.248;2022-11-23T18:06:17;5.80;99.90
7307;DHT22;3694;48.732;9.248;2022-11-23T18:08:44;5.80;99.90
7307;DHT22;3694;48.732;9.248;2022-11-23T18:11:10;5.70;99.90
7307;DHT22;3694;48.732;9.248;2022-11-23T18:13:37;5.70;99.90
7307;DHT22;3694;48.732;9.248;2022-11-23T18:16:04;5.70;99.90
7307;DHT22;3694;48.732;9.248;2022-11-23T18:18:30;5.60;99.90
7307;DHT22;3694;48.732;9.248;2022-11-23T18:20:55;5.60;99.90
7307;DHT22;3694;48.732;9.248;2022-11-23T18:23:21;5.50;99.90
7307;DHT22;3694;48.732;9.248;2022-11-23T18:25:57;5.50;99.90
7307;DHT22;3694;48.732;9.248;2022-11-23T18:28:22;5.50;99.90
7307;DHT22;3694;48.732;9.248;2022-11-23T18:30:48;5.50;99.90